Harare, Zimbabwe
Current Conditions -  °F | °C
As of 11:00 PM on Monday 22 Dec 2014 (Local Time) from FVHA Reporting Station
Broken Clouds Broken Clouds  
Wind Chill: 66°   Ceiling: 8000
Heat Index: 66°   Visibility: 6mi
Dew Point: 66°   Wind: 7mph
Humidity: 100%   Direction: 120°ESE
Pressure: 30.15"   Gusts: NA
Location:  17.82°S, 31.05°E
Report Text: FVHA 222100Z 12006KT 9999 SCT010 BKN080 19/19 Q1021 NOSIG
Loading
Personal Weather Stations






























Interactive Weather Map New forecast layout! Learn more

10-Day Weather Forecast

Advertisements
Track Severe Weather on mobile